Terminal Aerodrome Forecast
Issued by NWS

Home | Current Version | Previous Version | Text Only | Print | Product List | Glossary On
Versions: 1 2 3 4 5 6 7 8 9 10 11 12 13 14 15 16 17 18 19 20 21
000
FTUS41 KBTV 251736
TAFSLK
TAF
KSLK 251736Z 2518/2618 27008KT P6SM OVC023
     FM252200 25003KT P6SM SCT025
     FM260000 VRB03KT P6SM SKC
     FM261200 05004KT P6SM BKN150 BKN200=

USA.gov is the U.S. government's official web portal to all federal, state and local government web resources and services.